KIRK

Kirksville Regional Airport

Kirksville, Missouri, USA
METAR KIRK 191455Z AUTO 16006KT 10SM CLR 26/21 A2997 RMK AO2 SLP144 T02610211 51002
Observed Flight Rules
Aug-19 @ 14:55 UTC (43 minutes ago) Visual Flight Rules
Wind Visibility Clouds
160° at 6 knots 10 miles
  • Clear skies
Temperatures Readings
Current 26°C / 79°F
Dewpoint 21°C / 70°F
Humidity 74%
Altimeter 29.97" Hg
Pressure 1014.4 hPa
Elevation 293
METAR KIRK 191455Z AUTO 16006KT 10SM CLR 26/21 A2997 RMK AO2 SLP144 T02610211 51002
Observed Flight Rules
Aug-19 @ 14:55 UTC
(43 minutes ago)
VFR
Wind Visibility
160° at 6 knots 10 miles
Clouds
  • Clear skies
Temperature Dewpoint
26°C / 79°F 21°C / 70°F
Humidity Altimeter Pressure
74% 29.97" Hg 1014.4 hPa